Time;durP1;ratioP1;P1;durP2;ratioP2;P2;SDS_P1;SDS_P2;PMS_P1;PMS_P2;Temp;Humidity;BMP_temperature;BMP_pressure;BME280_temperature;BME280_humidity;BME280_pressure;Samples;Min_cycle;Max_cycle;Signal;HPM_P1;HPM_P2
2023/12/03 00:00:02;;;;;;;14.05;8.07;;;;;;;-4.64;100.00;97651.44;5022249;28;20123;-62
2023/12/03 00:02:31;;;;;;;14.85;7.28;;;;;;;-4.62;100.00;97649.47;5033787;28;20045;-63
2023/12/03 00:04:58;;;;;;;14.05;8.40;;;;;;;-4.67;100.00;97646.47;5033383;28;20044;-63
2023/12/03 00:07:26;;;;;;;15.35;7.35;;;;;;;-4.47;100.00;97655.09;5036250;28;20041;-62
2023/12/03 00:09:55;;;;;;;13.15;7.93;;;;;;;-4.42;100.00;97657.31;5026452;28;20053;-62
2023/12/03 00:12:22;;;;;;;14.13;8.80;;;;;;;-4.58;100.00;97650.84;5035476;28;20047;-62
2023/12/03 00:14:49;;;;;;;14.77;7.85;;;;;;;-4.76;100.00;97653.44;5029228;28;20051;-62
2023/12/03 00:17:16;;;;;;;13.80;8.32;;;;;;;-4.84;100.00;97659.47;5031410;28;20576;-62
2023/12/03 00:19:42;;;;;;;13.75;7.65;;;;;;;-4.89;100.00;97659.09;5035304;28;20052;-62
2023/12/03 00:22:09;;;;;;;14.30;7.32;;;;;;;-4.91;100.00;97663.66;5029705;28;20047;-62
2023/12/03 00:24:35;;;;;;;15.65;7.50;;;;;;;-4.90;100.00;97661.88;5026790;28;20042;-62
2023/12/03 00:27:02;;;;;;;13.70;8.13;;;;;;;-4.96;100.00;97672.03;5035280;28;21166;-62
2023/12/03 00:29:29;;;;;;;12.20;7.38;;;;;;;-4.95;100.00;97664.94;5040331;28;20116;-62
2023/12/03 00:31:55;;;;;;;14.50;7.93;;;;;;;-4.92;100.00;97669.09;5031085;28;20447;-62
2023/12/03 00:34:22;;;;;;;12.65;7.43;;;;;;;-4.99;100.00;97667.03;5039055;28;20528;-62
2023/12/03 00:36:49;;;;;;;13.70;8.93;;;;;;;-4.96;100.00;97672.03;5039299;28;20065;-62
2023/12/03 00:39:16;;;;;;;15.23;7.95;;;;;;;-4.95;100.00;97667.56;5035569;28;20548;-62
2023/12/03 00:41:42;;;;;;;18.17;9.43;;;;;;;-4.96;100.00;97661.47;5042519;28;20461;-62
2023/12/03 00:44:09;;;;;;;17.85;8.93;;;;;;;-4.87;100.00;97666.88;5037131;28;20047;-62
2023/12/03 00:46:35;;;;;;;14.60;7.60;;;;;;;-4.89;100.00;97663.53;5036358;28;20042;-62
2023/12/03 00:49:02;;;;;;;14.15;7.22;;;;;;;-4.88;100.00;97666.03;5034032;28;20072;-62
2023/12/03 00:51:28;;;;;;;16.88;8.38;;;;;;;-4.93;100.00;97664.78;5036623;28;20044;-62
2023/12/03 00:53:55;;;;;;;12.80;8.30;;;;;;;-4.84;100.00;97663.91;5037542;28;20040;-62
2023/12/03 00:56:22;;;;;;;15.82;7.97;;;;;;;-4.80;100.00;97670.56;5040390;28;20040;-62
2023/12/03 00:58:48;;;;;;;15.98;7.95;;;;;;;-4.77;100.00;97661.50;5035011;28;20571;-62
2023/12/03 01:01:15;;;;;;;17.17;8.82;;;;;;;-4.84;100.00;97666.56;5031214;28;20049;-62
2023/12/03 01:03:41;;;;;;;16.65;9.95;;;;;;;-5.00;100.00;97670.66;5049304;28;20037;-62
2023/12/03 01:06:08;;;;;;;15.35;8.40;;;;;;;-5.05;100.00;97670.25;5032027;28;20037;-62
2023/12/03 01:08:35;;;;;;;16.38;8.93;;;;;;;-4.99;100.00;97672.31;5035911;28;20487;-62
2023/12/03 01:11:05;;;;;;;14.82;8.52;;;;;;;-4.94;100.00;97671.06;5030944;28;20095;-62
2023/12/03 01:13:32;;;;;;;19.40;8.65;;;;;;;-4.89;100.00;97666.16;5039008;28;20257;-62
2023/12/03 01:15:58;;;;;;;16.90;8.25;;;;;;;-4.97;100.00;97680.09;5029991;28;20113;-62
2023/12/03 01:18:25;;;;;;;19.65;10.35;;;;;;;-4.87;100.00;97686.16;5036352;28;20057;-62
2023/12/03 01:20:52;;;;;;;15.85;8.05;;;;;;;-4.84;100.00;97690.31;5038007;28;20041;-62
2023/12/03 01:23:18;;;;;;;16.83;8.60;;;;;;;-4.77;100.00;97696.69;5034423;28;20095;-62
2023/12/03 01:25:45;;;;;;;17.88;9.30;;;;;;;-4.78;100.00;97702.13;5034449;28;20044;-62
2023/12/03 01:28:11;;;;;;;16.85;8.35;;;;;;;-4.83;100.00;97706.03;5046650;28;20045;-62
2023/12/03 01:30:38;;;;;;;16.10;9.02;;;;;;;-4.89;100.00;97708.44;5038353;28;20056;-62
2023/12/03 01:33:04;;;;;;;16.23;9.23;;;;;;;-4.95;100.00;97715.13;5040112;28;20041;-62
2023/12/03 01:35:31;;;;;;;16.40;8.75;;;;;;;-4.86;100.00;97716.06;5033665;28;20034;-62
2023/12/03 01:38:00;;;;;;;18.27;9.32;;;;;;;-4.91;100.00;97713.03;5034810;28;20644;-62
2023/12/03 01:40:26;;;;;;;16.92;9.15;;;;;;;-5.04;100.00;97719.47;5037614;28;20048;-62
2023/12/03 01:42:53;;;;;;;17.15;9.25;;;;;;;-5.04;100.00;97729.19;5034055;28;20415;-62
2023/12/03 01:45:19;;;;;;;16.58;8.48;;;;;;;-4.93;100.00;97736.09;5036748;28;20041;-62
2023/12/03 01:47:46;;;;;;;17.75;8.75;;;;;;;-4.88;100.00;97736.50;5037578;28;20102;-62
2023/12/03 01:50:14;;;;;;;16.50;9.50;;;;;;;-4.86;100.00;97727.44;5041265;28;20037;-62
2023/12/03 01:52:41;;;;;;;16.60;9.15;;;;;;;-4.81;100.00;97736.75;5040673;28;20396;-62
2023/12/03 01:55:11;;;;;;;17.70;9.18;;;;;;;-4.85;100.00;97738.88;5032349;28;20045;-62
2023/12/03 01:57:38;;;;;;;18.60;9.50;;;;;;;-4.83;100.00;97742.22;5034957;28;20041;-62
2023/12/03 02:00:06;;;;;;;14.43;8.32;;;;;;;-4.90;100.00;97731.34;5035713;28;20208;-63
2023/12/03 02:02:38;;;;;;;16.73;7.78;;;;;;;-4.78;100.00;97741.75;5039058;28;20049;-62
2023/12/03 02:05:04;;;;;;;21.10;9.55;;;;;;;-4.85;100.00;97738.88;5041178;28;20051;-62
2023/12/03 02:07:31;;;;;;;16.35;8.93;;;;;;;-4.96;100.00;97737.22;5046546;28;20045;-62
2023/12/03 02:09:59;;;;;;;18.02;9.80;;;;;;;-4.97;100.00;97746.94;5030563;28;20043;-63
2023/12/03 02:12:27;;;;;;;15.30;8.40;;;;;;;-4.96;100.00;97743.34;5036086;28;20040;-62
2023/12/03 02:14:54;;;;;;;16.80;8.85;;;;;;;-4.99;100.00;97746.28;5033528;28;20048;-62
2023/12/03 02:17:20;;;;;;;16.75;8.15;;;;;;;-4.93;100.00;97751.97;5041838;28;20139;-63
2023/12/03 02:19:46;;;;;;;15.77;8.63;;;;;;;-4.73;100.00;97744.78;5035851;28;20044;-63
2023/12/03 02:22:13;;;;;;;20.13;8.98;;;;;;;-4.71;100.00;97751.59;5032309;28;20111;-63
2023/12/03 02:24:40;;;;;;;16.27;8.38;;;;;;;-4.58;100.00;97745.16;5038920;28;20041;-62
2023/12/03 02:27:06;;;;;;;14.98;7.78;;;;;;;-4.46;100.00;97746.63;5040344;28;20088;-62
2023/12/03 02:29:33;;;;;;;13.85;7.40;;;;;;;-4.57;100.00;97755.56;5030506;28;20045;-63
2023/12/03 02:31:59;;;;;;;15.10;7.63;;;;;;;-4.60;100.00;97757.69;5037726;28;20105;-63
2023/12/03 02:34:26;;;;;;;13.13;7.32;;;;;;;-4.51;100.00;97764.75;5027146;28;20128;-63
2023/12/03 02:36:52;;;;;;;15.20;8.27;;;;;;;-4.63;100.00;97768.53;5043208;28;20037;-63
2023/12/03 02:39:19;;;;;;;14.23;7.43;;;;;;;-4.55;100.00;97766.00;5037274;28;20158;-62
2023/12/03 02:41:45;;;;;;;16.95;7.88;;;;;;;-4.67;100.00;97762.72;5041160;28;20404;-62
2023/12/03 02:44:12;;;;;;;13.90;8.85;;;;;;;-4.79;100.00;97755.94;5034072;28;20057;-62
2023/12/03 02:46:38;;;;;;;15.95;8.90;;;;;;;-4.69;100.00;97764.66;5036730;28;20041;-62
2023/12/03 02:49:05;;;;;;;16.80;8.43;;;;;;;-4.72;100.00;97764.97;5037691;28;20139;-62
2023/12/03 02:51:32;;;;;;;19.10;8.35;;;;;;;-4.70;100.00;97760.38;5035314;28;20448;-62
2023/12/03 02:54:00;;;;;;;14.43;7.65;;;;;;;-4.73;100.00;97750.91;5037062;28;20072;-62
2023/12/03 02:56:26;;;;;;;16.50;7.60;;;;;;;-4.81;100.00;97755.25;5031048;28;20573;-62
2023/12/03 02:58:53;;;;;;;13.73;7.60;;;;;;;-4.84;100.00;97761.66;5034819;28;20132;-62
2023/12/03 03:01:19;;;;;;;16.75;7.93;;;;;;;-4.83;100.00;97758.06;5035609;28;20492;-62
2023/12/03 03:03:46;;;;;;;13.25;7.93;;;;;;;-4.87;100.00;97756.69;5037585;28;20057;-62
2023/12/03 03:06:12;;;;;;;14.70;8.05;;;;;;;-4.94;100.00;97764.31;5028874;28;20463;-62
2023/12/03 03:08:39;;;;;;;13.48;7.60;;;;;;;-4.93;100.00;97766.00;5036290;28;20032;-62
2023/12/03 03:11:08;;;;;;;13.02;7.40;;;;;;;-4.80;100.00;97770.16;5029668;28;20045;-62
2023/12/03 03:13:34;;;;;;;15.35;7.30;;;;;;;-4.88;100.00;97771.69;5025526;28;20049;-62
2023/12/03 03:16:01;;;;;;;15.20;8.57;;;;;;;-4.92;100.00;97772.94;5032229;28;20426;-62
2023/12/03 03:18:27;;;;;;;14.00;8.00;;;;;;;-5.03;100.00;97765.19;5043583;28;20504;-62
2023/12/03 03:20:54;;;;;;;14.82;8.07;;;;;;;-5.25;100.00;97768.00;5038218;28;20041;-63
2023/12/03 03:23:20;;;;;;;15.27;7.82;;;;;;;-5.35;100.00;97770.66;5027745;28;20099;-62
2023/12/03 03:25:47;;;;;;;15.57;8.55;;;;;;;-5.31;100.00;97765.09;5031818;28;20044;-62
2023/12/03 03:28:13;;;;;;;19.75;9.20;;;;;;;-5.22;100.00;97770.38;5037815;28;20044;-62
2023/12/03 03:30:40;;;;;;;17.63;8.55;;;;;;;-5.17;100.00;97775.22;5033839;28;20050;-62
2023/12/03 03:33:06;;;;;;;16.30;8.50;;;;;;;-5.22;100.00;97782.75;5038214;28;20622;-62
2023/12/03 03:35:33;;;;;;;14.65;8.57;;;;;;;-5.25;100.00;97775.09;5031295;28;20128;-62
2023/12/03 03:37:59;;;;;;;15.02;8.07;;;;;;;-5.35;100.00;97775.94;5026412;28;20492;-62
2023/12/03 03:40:26;;;;;;;16.45;7.90;;;;;;;-5.25;100.00;97780.38;5041289;28;20048;-62
2023/12/03 03:42:52;;;;;;;18.80;9.18;;;;;;;-4.90;100.00;97776.25;5027484;28;20068;-62
2023/12/03 03:45:19;;;;;;;16.27;8.80;;;;;;;-5.28;100.00;97773.56;5034222;28;20061;-62
2023/12/03 03:47:46;;;;;;;16.38;8.07;;;;;;;-5.31;100.00;97786.22;5033192;28;20037;-62
2023/12/03 03:50:12;;;;;;;17.23;9.10;;;;;;;-5.29;100.00;97782.47;5035786;28;20487;-62
2023/12/03 03:52:39;;;;;;;17.17;9.48;;;;;;;-5.30;100.00;97775.53;5027015;28;20038;-62
2023/12/03 03:55:06;;;;;;;15.98;7.35;;;;;;;-5.39;100.00;97771.06;5035489;28;20139;-62
2023/12/03 03:57:33;;;;;;;15.45;8.25;;;;;;;-5.40;100.00;97777.34;5036260;28;20043;-62
2023/12/03 04:00:00;;;;;;;16.15;7.97;;;;;;;-5.69;100.00;97786.91;5045851;28;20033;-62
2023/12/03 04:02:26;;;;;;;14.20;8.30;;;;;;;-5.66;100.00;97789.28;5044177;28;20125;-62
2023/12/03 04:04:53;;;;;;;15.15;7.97;;;;;;;-5.97;100.00;97786.75;5035567;28;20147;-62
2023/12/03 04:07:19;;;;;;;15.20;8.23;;;;;;;-6.09;100.00;97793.97;5038168;28;20315;-62
2023/12/03 04:09:46;;;;;;;15.20;8.13;;;;;;;-6.19;100.00;97790.50;5046631;28;20049;-62
2023/12/03 04:12:13;;;;;;;16.52;8.52;;;;;;;-6.43;100.00;97792.50;5049025;28;20037;-62
2023/12/03 04:14:40;;;;;;;12.68;7.03;;;;;;;-6.43;100.00;97795.13;5032639;28;20425;-62
2023/12/03 04:17:08;;;;;;;16.15;8.05;;;;;;;-6.70;100.00;97791.28;5031354;28;20098;-64
2023/12/03 04:19:36;;;;;;;18.92;8.57;;;;;;;-6.95;100.00;97801.28;5039232;28;20073;-62
2023/12/03 04:22:03;;;;;;;14.35;7.60;;;;;;;-7.20;100.00;97803.34;5040861;28;20645;-62
2023/12/03 04:24:29;;;;;;;16.85;8.00;;;;;;;-7.24;100.00;97807.19;5041742;28;20037;-62
2023/12/03 04:26:56;;;;;;;13.45;6.82;;;;;;;-7.22;100.00;97807.06;5040974;28;20037;-62
2023/12/03 04:29:22;;;;;;;13.88;7.10;;;;;;;-7.21;100.00;97806.94;5048258;28;20487;-62
2023/12/03 04:31:49;;;;;;;15.68;8.68;;;;;;;-7.36;100.00;97803.78;5027678;28;20064;-62
2023/12/03 04:34:16;;;;;;;15.10;8.02;;;;;;;-7.73;100.00;97810.28;5037079;28;20045;-62
2023/12/03 04:36:43;;;;;;;12.95;6.32;;;;;;;-7.87;100.00;97800.88;5034073;28;20049;-62
2023/12/03 04:39:10;;;;;;;14.25;7.45;;;;;;;-7.98;100.00;97807.00;5045245;28;20483;-62
2023/12/03 04:41:37;;;;;;;16.80;7.53;;;;;;;-7.85;100.00;97809.47;5032585;28;20091;-62
2023/12/03 04:44:04;;;;;;;15.35;7.88;;;;;;;-7.83;100.00;97806.72;5037026;28;20605;-62
2023/12/03 04:46:31;;;;;;;13.20;7.18;;;;;;;-7.93;100.00;97811.06;5042759;28;20460;-62
2023/12/03 04:48:58;;;;;;;16.98;7.85;;;;;;;-8.12;100.00;97809.88;5041629;28;20047;-62
2023/12/03 04:51:24;;;;;;;14.68;7.85;;;;;;;-8.19;100.00;97821.84;5035497;28;20037;-62
2023/12/03 04:53:51;;;;;;;12.65;6.75;;;;;;;-8.04;100.00;97814.53;5038282;28;20044;-62
2023/12/03 04:56:18;;;;;;;15.63;7.55;;;;;;;-8.20;100.00;97825.41;5035112;28;20492;-62
2023/12/03 04:58:44;;;;;;;12.05;6.60;;;;;;;-8.34;100.00;97813.41;5036951;28;20033;-62
2023/12/03 05:01:12;;;;;;;12.32;6.93;;;;;;;-8.39;100.00;97811.97;5038586;28;20050;-62
2023/12/03 05:03:43;;;;;;;13.23;7.05;;;;;;;-8.51;100.00;97816.38;5032391;28;20041;-61
2023/12/03 05:06:10;;;;;;;15.88;6.85;;;;;;;-8.53;100.00;97817.47;5034278;28;20048;-62
2023/12/03 05:08:37;;;;;;;15.35;7.05;;;;;;;-8.62;100.00;97816.41;5035191;28;20064;-62
2023/12/03 05:11:05;;;;;;;14.73;7.43;;;;;;;-8.67;100.00;97813.31;5041420;28;20044;-62
2023/12/03 05:13:34;;;;;;;14.15;7.28;;;;;;;-8.88;100.00;97814.84;5041398;28;20065;-62
2023/12/03 05:16:04;;;;;;;13.15;6.60;;;;;;;-8.89;100.00;97817.56;5031636;28;20511;-62
2023/12/03 05:18:31;;;;;;;12.73;6.63;;;;;;;-8.82;100.00;97820.59;5036604;28;20091;-62
2023/12/03 05:20:58;;;;;;;14.68;6.53;;;;;;;-8.83;100.00;97819.75;5041388;28;20531;-62
2023/12/03 05:23:25;;;;;;;13.68;7.78;;;;;;;-8.93;100.00;97826.63;5037596;28;20646;-62
2023/12/03 05:25:52;;;;;;;14.73;8.25;;;;;;;-9.06;100.00;97826.75;5038273;28;20044;-62
2023/12/03 05:28:18;;;;;;;16.77;7.82;;;;;;;-9.03;100.00;97832.59;5043356;28;20050;-62
2023/12/03 05:30:45;;;;;;;13.23;6.90;;;;;;;-8.99;100.00;97834.97;5038627;28;20052;-62
2023/12/03 05:33:11;;;;;;;15.30;7.28;;;;;;;-8.93;100.00;97832.72;5038280;28;20045;-62
2023/12/03 05:35:38;;;;;;;14.10;7.13;;;;;;;-8.94;100.00;97835.47;5040429;28;21028;-62
2023/12/03 05:38:05;;;;;;;15.00;7.35;;;;;;;-8.93;100.00;97830.09;5036088;28;20033;-62
2023/12/03 05:40:31;;;;;;;13.18;7.07;;;;;;;-8.86;100.00;97837.53;5044486;28;20065;-62
2023/12/03 05:42:58;;;;;;;19.65;7.72;;;;;;;-8.78;100.00;97841.22;5037833;28;20098;-62
2023/12/03 05:45:24;;;;;;;17.48;8.65;;;;;;;-8.87;100.00;97839.31;5035944;28;20041;-62
2023/12/03 05:47:51;;;;;;;13.77;6.03;;;;;;;-8.94;100.00;97840.72;5032540;28;20041;-62
2023/12/03 05:50:17;;;;;;;13.70;7.28;;;;;;;-8.93;100.00;97842.38;5034931;28;20089;-61
2023/12/03 05:52:44;;;;;;;13.70;6.88;;;;;;;-8.70;100.00;97847.69;5044248;28;20443;-62
2023/12/03 05:55:11;;;;;;;13.38;6.15;;;;;;;-8.75;100.00;97846.25;5036195;28;20047;-62
2023/12/03 05:57:37;;;;;;;13.57;7.35;;;;;;;-8.72;100.00;97845.16;5039167;28;20072;-62
2023/12/03 06:00:05;;;;;;;13.57;6.78;;;;;;;-9.02;100.00;97854.44;5029163;28;20037;-62
2023/12/03 06:02:34;;;;;;;14.68;7.63;;;;;;;-9.12;100.00;97851.66;5038076;28;20110;-62
2023/12/03 06:05:02;;;;;;;16.55;8.40;;;;;;;-9.18;100.00;97852.94;5035379;28;20033;-62
2023/12/03 06:07:29;;;;;;;16.35;7.68;;;;;;;-9.32;100.00;97854.00;5039816;28;20447;-61
2023/12/03 06:09:55;;;;;;;13.85;7.20;;;;;;;-9.38;100.00;97843.09;5031911;28;20049;-62
2023/12/03 06:12:22;;;;;;;14.18;7.40;;;;;;;-9.43;100.00;97851.31;5036331;28;20045;-62
2023/12/03 06:14:48;;;;;;;14.00;7.70;;;;;;;-9.48;100.00;97861.31;5035210;28;20128;-62
2023/12/03 06:17:15;;;;;;;15.20;8.48;;;;;;;-9.40;100.00;97861.59;5038430;28;20152;-62
2023/12/03 06:19:41;;;;;;;15.23;8.13;;;;;;;-9.41;100.00;97854.66;5044447;28;20047;-62
2023/12/03 06:22:08;;;;;;;18.50;8.23;;;;;;;-9.51;100.00;97851.91;5035450;28;20744;-62
2023/12/03 06:24:34;;;;;;;15.65;7.80;;;;;;;-9.59;100.00;97857.69;5035906;28;20051;-61
2023/12/03 06:27:02;;;;;;;13.10;7.55;;;;;;;-9.54;100.00;97865.22;5040876;28;20041;-61
2023/12/03 06:29:29;;;;;;;12.57;6.55;;;;;;;-9.59;100.00;97865.53;5035895;28;20532;-62
2023/12/03 06:31:55;;;;;;;17.60;8.00;;;;;;;-9.58;100.00;97869.00;5045569;28;20037;-61
2023/12/03 06:34:22;;;;;;;15.60;8.52;;;;;;;-9.62;100.00;97871.00;5044750;28;20059;-62
2023/12/03 06:36:49;;;;;;;16.67;7.88;;;;;;;-9.48;100.00;97864.75;5032657;28;20064;-62
2023/12/03 06:39:15;;;;;;;18.35;8.02;;;;;;;-9.71;100.00;97862.03;5029896;28;20045;-62
2023/12/03 06:41:43;;;;;;;17.20;9.13;;;;;;;-9.67;100.00;97871.34;5037497;28;20485;-62
2023/12/03 06:44:09;;;;;;;15.52;8.55;;;;;;;-9.70;100.00;97866.31;5033605;28;20094;-62
2023/12/03 06:46:40;;;;;;;16.45;8.88;;;;;;;-9.89;100.00;97874.69;5041788;28;20044;-62
2023/12/03 06:49:07;;;;;;;14.70;6.90;;;;;;;-9.74;100.00;97870.13;5037419;28;20045;-62
2023/12/03 06:51:33;;;;;;;14.50;7.80;;;;;;;-9.72;100.00;97865.63;5035154;28;20069;-63
2023/12/03 06:54:02;;;;;;;15.02;9.15;;;;;;;-9.82;100.00;97865.44;5037304;28;20044;-63
2023/12/03 06:56:29;;;;;;;16.48;8.55;;;;;;;-9.95;100.00;97880.38;5033790;28;20034;-63
2023/12/03 06:58:55;;;;;;;19.90;9.48;;;;;;;-10.08;100.00;97873.38;5032430;28;20059;-61
2023/12/03 07:01:22;;;;;;;14.63;8.20;;;;;;;-10.08;100.00;97870.75;5038588;28;20056;-61
2023/12/03 07:03:49;;;;;;;18.55;9.18;;;;;;;-10.08;100.00;97872.53;5033110;28;20064;-62
2023/12/03 07:06:15;;;;;;;16.85;7.95;;;;;;;-9.77;100.00;97878.19;5032200;28;20551;-62
2023/12/03 07:08:44;;;;;;;18.38;8.48;;;;;;;-9.51;100.00;97895.63;5036873;28;20416;-62
2023/12/03 07:11:13;;;;;;;20.02;9.68;;;;;;;-9.13;100.00;97886.72;5038015;28;20044;-62
2023/12/03 07:13:40;;;;;;;19.75;10.13;;;;;;;-8.67;100.00;97897.34;5047550;28;20068;-62
2023/12/03 07:16:08;;;;;;;19.20;8.90;;;;;;;-9.09;100.00;97882.91;5027956;28;20558;-62
2023/12/03 07:18:35;;;;;;;17.25;8.55;;;;;;;-9.21;100.00;97886.44;5038216;28;20120;-62
2023/12/03 07:21:02;;;;;;;18.58;9.48;;;;;;;-9.35;100.00;97893.56;5034447;28;20037;-62
2023/12/03 07:23:29;;;;;;;16.55;8.30;;;;;;;-9.49;100.00;97891.09;5041461;28;20171;-62
2023/12/03 07:25:55;;;;;;;18.17;7.75;;;;;;;-9.75;100.00;97902.53;5034947;28;20088;-62
2023/12/03 07:28:22;;;;;;;16.88;7.97;;;;;;;-9.55;100.00;97903.69;5034109;28;20103;-61
2023/12/03 07:30:48;;;;;;;19.63;9.27;;;;;;;-9.38;100.00;97901.63;5032353;28;20601;-62
2023/12/03 07:33:15;;;;;;;14.63;8.32;;;;;;;-9.24;100.00;97907.66;5037510;28;20037;-62
2023/12/03 07:35:42;;;;;;;23.60;10.02;;;;;;;-9.41;100.00;97912.34;5037371;28;20056;-62
2023/12/03 07:38:08;;;;;;;17.40;7.68;;;;;;;-9.48;100.00;97909.34;5038943;28;21432;-62
2023/12/03 07:40:35;;;;;;;16.42;7.88;;;;;;;-9.60;100.00;97913.69;5040489;28;20568;-62
2023/12/03 07:43:01;;;;;;;15.55;8.45;;;;;;;-9.41;100.00;97917.59;5050305;28;20405;-62
2023/12/03 07:45:28;;;;;;;20.50;9.38;;;;;;;-9.45;100.00;97916.13;5042453;28;20052;-62
2023/12/03 07:47:54;;;;;;;21.05;10.85;;;;;;;-9.20;100.00;97916.97;5034094;28;20046;-62
2023/12/03 07:50:21;;;;;;;18.48;9.85;;;;;;;-9.15;100.00;97918.31;5034000;28;20045;-62
2023/12/03 07:52:48;;;;;;;18.60;9.45;;;;;;;-8.97;100.00;97920.50;5032012;28;20071;-62
2023/12/03 07:55:14;;;;;;;17.33;8.15;;;;;;;-8.99;100.00;97929.44;5042540;28;20052;-62
2023/12/03 07:57:41;;;;;;;16.30;7.30;;;;;;;-9.12;100.00;97932.13;5037839;28;20060;-62
2023/12/03 08:00:08;;;;;;;17.08;9.55;;;;;;;-9.10;100.00;97931.09;5034894;28;20505;-62
2023/12/03 08:02:38;;;;;;;24.10;11.50;;;;;;;-9.29;100.00;97931.63;5038663;28;20132;-62
2023/12/03 08:05:04;;;;;;;21.20;10.77;;;;;;;-9.31;100.00;97929.09;5036156;28;20042;-62
2023/12/03 08:07:31;;;;;;;21.65;11.25;;;;;;;-9.38;100.00;97927.88;5038223;28;20047;-63
2023/12/03 08:09:58;;;;;;;27.23;12.15;;;;;;;-9.38;100.00;97927.00;5042545;28;20095;-62
2023/12/03 08:12:24;;;;;;;27.10;12.45;;;;;;;-9.47;100.00;97925.91;5044584;28;20523;-62
2023/12/03 08:14:51;;;;;;;27.55;13.50;;;;;;;-9.40;100.00;97932.41;5038922;28;20041;-63
2023/12/03 08:17:18;;;;;;;27.83;13.13;;;;;;;-9.24;100.00;97929.47;5036280;28;20039;-62
2023/12/03 08:19:45;;;;;;;26.92;12.27;;;;;;;-9.24;100.00;97928.63;5036340;28;20489;-62
2023/12/03 08:22:11;;;;;;;31.20;14.82;;;;;;;-9.17;100.00;97932.50;5040407;28;20040;-62
2023/12/03 08:24:38;;;;;;;32.85;16.13;;;;;;;-8.97;100.00;97933.63;5042245;28;20076;-62
2023/12/03 08:27:05;;;;;;;24.85;13.70;;;;;;;-8.76;100.00;97935.63;5038085;28;20133;-62
2023/12/03 08:29:32;;;;;;;34.60;17.38;;;;;;;-8.55;100.00;97946.28;5037208;28;20065;-62
2023/12/03 08:31:59;;;;;;;28.55;14.98;;;;;;;-8.48;100.00;97936.94;5035095;28;20053;-62
2023/12/03 08:34:26;;;;;;;31.58;15.48;;;;;;;-8.31;100.00;97939.22;5051130;28;20094;-62
2023/12/03 08:36:53;;;;;;;33.20;15.23;;;;;;;-7.74;100.00;97929.53;5033534;28;20045;-63
2023/12/03 08:39:20;;;;;;;25.33;13.15;;;;;;;-7.41;100.00;97928.78;5039976;28;20111;-62
2023/12/03 08:41:47;;;;;;;25.48;12.80;;;;;;;-7.60;100.00;97932.88;5031867;28;20588;-62
2023/12/03 08:44:13;;;;;;;21.58;11.93;;;;;;;-7.72;100.00;97932.91;5033210;28;20995;-62
2023/12/03 08:46:40;;;;;;;24.65;11.45;;;;;;;-7.53;100.00;97947.19;5024243;28;20041;-62
2023/12/03 08:49:06;;;;;;;21.95;11.77;;;;;;;-7.30;100.00;97933.97;5021726;28;20044;-62
2023/12/03 08:51:33;;;;;;;22.42;10.55;;;;;;;-7.26;100.00;97932.78;5033085;28;20049;-63
2023/12/03 08:54:00;;;;;;;20.17;10.95;;;;;;;-6.99;100.00;97931.50;5046439;28;20137;-62
2023/12/03 08:56:26;;;;;;;19.98;10.52;;;;;;;-6.79;100.00;97934.25;5035867;28;20053;-62
2023/12/03 08:58:53;;;;;;;24.98;10.88;;;;;;;-6.49;100.00;97940.56;5033901;28;20052;-62
2023/12/03 09:01:20;;;;;;;18.70;10.65;;;;;;;-6.46;100.00;97942.94;5037489;28;20045;-62
2023/12/03 09:03:48;;;;;;;17.92;9.40;;;;;;;-6.21;100.00;97946.16;5042347;28;20048;-66
2023/12/03 09:06:15;;;;;;;22.00;10.07;;;;;;;-6.34;100.00;97940.25;5027821;28;20047;-61
2023/12/03 09:08:42;;;;;;;16.00;9.35;;;;;;;-6.35;100.00;97941.22;5036511;28;20040;-61
2023/12/03 09:11:10;;;;;;;20.92;10.52;;;;;;;-6.50;100.00;97933.63;5040362;28;20036;-61
2023/12/03 09:13:36;;;;;;;20.77;9.57;;;;;;;-6.48;100.00;97926.44;5037475;28;20689;-62
2023/12/03 09:16:03;;;;;;;17.92;8.50;;;;;;;-6.36;100.00;97921.09;5041644;28;20497;-62
2023/12/03 09:18:30;;;;;;;15.88;8.73;;;;;;;-6.21;100.00;97919.78;5030157;28;20079;-61
2023/12/03 09:20:57;;;;;;;18.83;9.45;;;;;;;-5.99;100.00;97920.53;5028867;28;20045;-61
2023/12/03 09:23:24;;;;;;;16.67;9.32;;;;;;;-6.11;100.00;97921.63;5036921;28;20045;-62
2023/12/03 09:25:50;;;;;;;18.98;9.30;;;;;;;-5.99;100.00;97920.53;5039727;28;20045;-61
2023/12/03 09:28:17;;;;;;;16.15;8.70;;;;;;;-5.72;100.00;97918.28;5044572;28;20416;-61
2023/12/03 09:30:43;;;;;;;18.08;9.18;;;;;;;-5.54;100.00;97921.06;5038697;28;20123;-62
2023/12/03 09:33:10;;;;;;;19.70;9.88;;;;;;;-5.48;100.00;97924.00;5028769;28;20670;-61
2023/12/03 09:35:37;;;;;;;17.52;9.60;;;;;;;-5.35;100.00;97920.28;5030020;28;20037;-61
2023/12/03 09:38:03;;;;;;;16.00;8.75;;;;;;;-5.25;100.00;97912.38;5037600;28;20048;-61
2023/12/03 09:40:30;;;;;;;15.88;8.52;;;;;;;-5.16;100.00;97918.66;5040943;28;20041;-61
2023/12/03 09:43:00;;;;;;;18.70;8.95;;;;;;;-5.04;100.00;97914.06;5035714;28;20049;-61
2023/12/03 09:45:28;;;;;;;13.25;8.00;;;;;;;-5.03;100.00;97916.56;5036757;28;20069;-62
2023/12/03 09:47:59;;;;;;;16.20;9.02;;;;;;;-4.99;100.00;97914.47;5042249;28;20227;-62
2023/12/03 09:50:28;;;;;;;;;;;;;;;-4.98;100.00;97913.50;5030950;28;20055;-62
2023/12/03 09:52:56;;;;;;;17.58;8.75;;;;;;;-4.85;100.00;97919.34;5046073;28;19924;-62
2023/12/03 09:55:27;;;;;;;18.75;7.97;;;;;;;-4.92;100.00;97925.31;5030524;28;20591;-62
2023/12/03 09:57:55;;;;;;;14.23;8.10;;;;;;;-4.90;100.00;97923.38;5028213;28;20041;-62
2023/12/03 10:00:23;;;;;;;18.48;9.80;;;;;;;-4.88;100.00;97924.06;5033466;28;20033;-62
2023/12/03 10:02:52;;;;;;;18.80;9.10;;;;;;;-4.91;100.00;97921.72;5035017;28;20227;-62
2023/12/03 10:05:19;;;;;;;18.25;9.48;;;;;;;-4.73;100.00;97919.19;5034626;28;20046;-62
2023/12/03 10:07:47;;;;;;;17.40;9.23;;;;;;;-4.69;100.00;97917.94;5038002;28;20083;-62
2023/12/03 10:10:19;;;;;;;16.52;8.30;;;;;;;-4.72;100.00;97926.97;5031080;28;20037;-62
2023/12/03 10:12:48;;;;;;;17.17;8.75;;;;;;;-4.78;100.00;97929.34;5026131;28;20069;-62
2023/12/03 10:15:15;;;;;;;16.58;8.40;;;;;;;-4.73;100.00;97930.59;5034691;28;20037;-62
2023/12/03 10:17:43;;;;;;;19.15;9.95;;;;;;;-4.77;100.00;97923.06;5039537;28;20041;-62
2023/12/03 10:20:21;;;;;;;17.77;9.15;;;;;;;-4.68;100.00;97927.53;5036429;28;20045;-61
2023/12/03 10:22:54;;;;;;;16.13;8.07;;;;;;;-4.69;100.00;97923.22;5032881;28;20037;-62
2023/12/03 10:25:32;;;;;;;17.10;8.82;;;;;;;-4.63;100.00;97921.81;5037902;28;20032;-62
2023/12/03 10:28:08;;;;;;;17.55;9.68;;;;;;;-4.67;100.00;97921.28;5026544;28;20033;-63
2023/12/03 10:30:38;;;;;;;13.80;8.20;;;;;;;-4.57;100.00;97929.19;5041897;28;20037;-67
2023/12/03 10:33:05;;;;;;;16.83;9.88;;;;;;;-4.51;100.00;97925.13;5044404;28;20041;-62
2023/12/03 10:35:34;;;;;;;18.08;9.65;;;;;;;-4.45;100.00;97924.56;5032380;28;20037;-61
2023/12/03 10:38:04;;;;;;;17.17;8.85;;;;;;;-4.48;100.00;97916.94;5037567;28;20041;-62
2023/12/03 10:40:33;;;;;;;15.13;8.90;;;;;;;-4.49;100.00;97918.72;5037972;28;20566;-62
2023/12/03 10:43:01;;;;;;;16.48;9.27;;;;;;;-4.48;100.00;97906.34;5035447;28;20436;-62
2023/12/03 10:45:28;;;;;;;17.02;8.63;;;;;;;-4.47;100.00;97905.38;5041533;28;20045;-62
2023/12/03 10:47:59;;;;;;;19.98;9.57;;;;;;;-4.35;100.00;97900.78;5037175;28;20068;-62
2023/12/03 10:50:27;;;;;;;15.02;8.48;;;;;;;-4.37;100.00;97898.25;5031233;28;20045;-62
2023/12/03 10:52:58;;;;;;;17.48;10.25;;;;;;;-4.32;100.00;97900.47;5043699;28;20068;-62
2023/12/03 10:55:25;;;;;;;15.87;8.53;;;;;;;-4.23;100.00;97899.63;5034735;28;20043;-62
2023/12/03 10:58:05;;;;;;;15.55;8.40;;;;;;;-4.30;100.00;97906.44;5033884;28;20284;-61
2023/12/03 11:00:47;;;;;;;17.55;9.13;;;;;;;-4.27;100.00;97907.97;5036406;28;21331;-61
2023/12/03 11:03:23;;;;;;;20.25;9.50;;;;;;;-4.20;100.00;97906.44;5036471;28;20040;-62
2023/12/03 11:05:52;;;;;;;17.95;9.73;;;;;;;-4.31;100.00;97905.59;5033346;28;20079;-61
2023/12/03 11:08:25;;;;;;;17.63;9.02;;;;;;;-4.22;100.00;97908.38;5033006;28;20751;-61
2023/12/03 11:10:54;;;;;;;14.80;8.32;;;;;;;-4.10;100.00;97894.00;5032557;28;20136;-61
2023/12/03 11:13:23;;;;;;;19.98;9.40;;;;;;;-3.99;100.00;97889.50;5027669;28;20049;-62
2023/12/03 11:16:02;;;;;;;19.35;8.90;;;;;;;-3.86;100.00;97892.66;5041090;28;20123;-62